Time;durP1;ratioP1;P1;durP2;ratioP2;P2;SDS_P1;SDS_P2;PMS_P1;PMS_P2;Temp;Humidity;BMP_temperature;BMP_pressure;BME280_temperature;BME280_humidity;BME280_pressure;Samples;Min_cycle;Max_cycle;Signal;HPM_P1;HPM_P2
2021/12/25 00:01:25;;;;;;;23.33;13.38;;;6.10;99.90;;;;;;5031904;28;20494;-67
2021/12/25 00:03:54;;;;;;;27.20;14.32;;;6.10;99.90;;;;;;5031540;28;20053;-67
2021/12/25 00:06:22;;;;;;;23.73;13.85;;;6.10;99.90;;;;;;5030670;28;20520;-68
2021/12/25 00:08:48;;;;;;;24.00;14.40;;;6.10;99.90;;;;;;5031061;28;20123;-67
2021/12/25 00:11:17;;;;;;;23.17;13.88;;;6.10;99.90;;;;;;5031381;28;20050;-67
2021/12/25 00:13:45;;;;;;;23.70;13.85;;;6.20;99.90;;;;;;5032474;28;20054;-67
2021/12/25 00:16:12;;;;;;;23.08;13.48;;;6.20;99.90;;;;;;5031819;28;20422;-68
2021/12/25 00:18:39;;;;;;;24.75;13.48;;;6.20;99.90;;;;;;5033864;28;20045;-68
2021/12/25 00:21:08;;;;;;;21.98;13.18;;;6.20;99.90;;;;;;5046758;28;20105;-67
2021/12/25 00:23:35;;;;;;;23.02;12.68;;;6.10;99.90;;;;;;5045038;28;20128;-67
2021/12/25 00:26:06;;;;;;;23.60;12.35;;;6.10;99.90;;;;;;5035381;28;20096;-67
2021/12/25 00:28:54;;;;;;;19.88;11.45;;;6.20;99.90;;;;;;5032951;28;20057;-67
2021/12/25 00:31:45;;;;;;;22.45;10.73;;;6.20;99.90;;;;;;5032838;28;20054;-67
2021/12/25 00:34:14;;;;;;;19.40;11.52;;;6.30;99.90;;;;;;5031826;28;20100;-67
2021/12/25 00:36:42;;;;;;;23.48;12.43;;;6.30;99.90;;;;;;5030756;28;20045;-67
2021/12/25 00:39:09;;;;;;;19.25;10.95;;;6.30;99.90;;;;;;5030891;28;20049;-68
2021/12/25 00:41:36;;;;;;;20.00;11.57;;;6.20;99.90;;;;;;5030778;28;20128;-69
2021/12/25 00:44:04;;;;;;;20.52;11.38;;;6.20;99.90;;;;;;5031359;28;20081;-68
2021/12/25 00:46:31;;;;;;;23.92;12.10;;;6.10;99.90;;;;;;5034475;28;20053;-67
2021/12/25 00:48:58;;;;;;;20.00;12.45;;;6.20;99.90;;;;;;5035204;28;20049;-67
2021/12/25 00:51:25;;;;;;;22.52;12.57;;;6.20;99.90;;;;;;5034747;28;20054;-67
2021/12/25 00:53:52;;;;;;;23.50;12.77;;;6.10;99.90;;;;;;5034800;28;20137;-67
2021/12/25 00:56:19;;;;;;;23.65;12.98;;;6.00;99.90;;;;;;5033803;28;20138;-68
2021/12/25 00:58:46;;;;;;;24.10;14.13;;;6.00;99.90;;;;;;5034295;28;20563;-68
2021/12/25 01:01:15;;;;;;;22.45;13.23;;;5.90;99.90;;;;;;5034363;28;20093;-67
2021/12/25 01:03:42;;;;;;;25.08;13.88;;;5.90;99.90;;;;;;5034403;28;20175;-68
2021/12/25 01:06:09;;;;;;;29.23;16.23;;;5.70;99.90;;;;;;5033705;28;20049;-68
2021/12/25 01:08:36;;;;;;;30.90;15.60;;;5.80;99.90;;;;;;5033922;28;20085;-68
2021/12/25 01:11:03;;;;;;;26.60;15.38;;;5.80;99.90;;;;;;5034059;28;20111;-68
2021/12/25 01:13:34;;;;;;;31.17;16.15;;;5.90;99.90;;;;;;5033992;28;20085;-68
2021/12/25 01:16:15;;;;;;;27.80;14.82;;;5.90;99.90;;;;;;5033485;28;20095;-68
2021/12/25 01:27:13;;;;;;;26.55;13.70;;;5.90;99.90;;;;;;5033388;28;20187;-68
2021/12/25 01:29:46;;;;;;;25.50;14.95;;;5.90;99.90;;;;;;5033336;28;20053;-68
2021/12/25 01:32:48;;;;;;;22.20;13.68;;;5.90;99.90;;;;;;5033814;28;20054;-67
2021/12/25 01:35:34;;;;;;;27.10;14.07;;;5.80;99.90;;;;;;5032581;28;20053;-68
2021/12/25 01:38:20;;;;;;;27.35;14.52;;;5.90;99.90;;;;;;5033532;28;20064;-68
2021/12/25 01:40:56;;;;;;;25.80;14.68;;;5.90;99.90;;;;;;5033513;28;20176;-67
2021/12/25 01:48:52;;;;;;;28.02;14.63;;;5.80;99.90;;;;;;5033651;28;20528;-68
2021/12/25 01:51:20;;;;;;;26.70;14.63;;;5.70;99.90;;;;;;5033107;28;20053;-68
2021/12/25 01:53:47;;;;;;;27.95;15.60;;;5.70;99.90;;;;;;5033164;28;20072;-67
2021/12/25 01:56:15;;;;;;;23.63;14.18;;;5.70;99.90;;;;;;5032293;28;20136;-68
2021/12/25 01:58:42;;;;;;;29.15;15.27;;;5.70;99.90;;;;;;5032913;28;20103;-68
2021/12/25 02:01:10;;;;;;;23.63;14.10;;;5.70;99.90;;;;;;5033189;28;20144;-67
2021/12/25 02:03:39;;;;;;;24.65;14.00;;;5.60;99.90;;;;;;5032993;28;20049;-67
2021/12/25 02:06:08;;;;;;;27.90;13.50;;;5.60;99.90;;;;;;5032507;28;20049;-67
2021/12/25 02:08:37;;;;;;;25.80;13.45;;;5.60;99.90;;;;;;5033115;28;20100;-67
2021/12/25 02:11:05;;;;;;;25.50;13.18;;;5.70;99.90;;;;;;5032744;28;20045;-67
2021/12/25 02:13:32;;;;;;;25.13;14.55;;;5.70;99.90;;;;;;5032532;28;20052;-67
2021/12/25 02:16:04;;;;;;;26.60;14.23;;;5.70;99.90;;;;;;5032195;28;20134;-67
2021/12/25 02:18:44;;;;;;;25.55;13.45;;;5.60;99.90;;;;;;5032649;28;20148;-67
2021/12/25 02:21:18;;;;;;;25.90;13.98;;;5.60;99.90;;;;;;5032723;28;20165;-68
2021/12/25 02:23:46;;;;;;;25.05;13.60;;;5.60;99.90;;;;;;5032214;28;20394;-68
2021/12/25 02:26:13;;;;;;;26.73;15.10;;;5.60;99.90;;;;;;5031902;28;20057;-68
2021/12/25 02:28:40;;;;;;;24.58;13.43;;;5.60;99.90;;;;;;5032324;28;20050;-68
2021/12/25 02:31:09;;;;;;;24.92;12.98;;;5.60;99.90;;;;;;5032245;28;20083;-68
2021/12/25 02:33:36;;;;;;;26.10;13.55;;;5.60;99.90;;;;;;5032298;28;20175;-67
2021/12/25 02:36:05;;;;;;;32.78;15.27;;;5.60;99.90;;;;;;5031646;28;20116;-67
2021/12/25 02:38:34;;;;;;;26.27;14.05;;;5.60;99.90;;;;;;5031907;28;20076;-68
2021/12/25 02:41:01;;;;;;;25.10;14.05;;;5.50;99.90;;;;;;5032144;28;20042;-68
2021/12/25 02:43:28;;;;;;;29.90;15.18;;;5.50;99.90;;;;;;5032271;28;20081;-68
2021/12/25 02:45:56;;;;;;;28.08;15.65;;;5.40;99.90;;;;;;5031707;28;20107;-68
2021/12/25 02:48:24;;;;;;;26.88;14.90;;;5.50;99.90;;;;;;5032065;28;20461;-68
2021/12/25 02:50:51;;;;;;;27.88;15.32;;;5.50;99.90;;;;;;5031807;28;20053;-68
2021/12/25 02:53:18;;;;;;;29.02;15.75;;;5.60;99.90;;;;;;5031932;28;20080;-67
2021/12/25 02:55:47;;;;;;;27.88;15.70;;;5.60;99.90;;;;;;5031443;28;20053;-67
2021/12/25 02:58:19;;;;;;;30.65;16.40;;;5.60;99.90;;;;;;5031946;28;20410;-67
2021/12/25 03:00:49;;;;;;;29.73;15.48;;;5.50;99.90;;;;;;5032397;28;20049;-67
2021/12/25 03:03:16;;;;;;;29.90;15.82;;;5.50;99.90;;;;;;5031621;28;20085;-67
2021/12/25 03:05:43;;;;;;;26.60;15.00;;;5.50;99.90;;;;;;5031259;28;20057;-68
2021/12/25 03:08:12;;;;;;;27.15;15.07;;;5.60;99.90;;;;;;5031094;28;20481;-67
2021/12/25 03:10:40;;;;;;;27.40;15.88;;;5.60;99.90;;;;;;5031701;28;20191;-67
2021/12/25 03:13:29;;;;;;;27.63;15.40;;;5.60;99.90;;;;;;5031438;28;20103;-67
2021/12/25 03:15:57;;;;;;;30.73;16.10;;;5.60;99.90;;;;;;5031039;28;20053;-68
2021/12/25 03:18:25;;;;;;;22.63;13.15;;;5.60;99.90;;;;;;5031740;28;20049;-68
2021/12/25 03:20:56;;;;;;;19.13;10.43;;;5.60;99.90;;;;;;5031178;28;20498;-68
2021/12/25 03:23:26;;;;;;;14.27;8.15;;;5.40;99.90;;;;;;5031738;28;20061;-68
2021/12/25 03:25:55;;;;;;;11.60;6.50;;;5.30;99.90;;;;;;5031364;28;20077;-68
2021/12/25 03:28:26;;;;;;;10.95;5.90;;;5.20;99.90;;;;;;5031264;28;20103;-68
2021/12/25 03:30:53;;;;;;;10.85;5.78;;;5.10;99.90;;;;;;5031342;28;20524;-68
2021/12/25 03:33:21;;;;;;;10.50;5.60;;;5.00;99.90;;;;;;5031338;28;20103;-68
2021/12/25 03:35:49;;;;;;;9.73;4.88;;;4.90;99.90;;;;;;5030712;28;20081;-68
2021/12/25 03:38:19;;;;;;;12.55;5.53;;;4.80;99.90;;;;;;5031127;28;20080;-68
2021/12/25 03:40:47;;;;;;;8.45;4.40;;;4.70;99.90;;;;;;5031222;28;20557;-68
2021/12/25 03:43:14;;;;;;;9.45;5.13;;;4.60;99.90;;;;;;5031220;28;20088;-68
2021/12/25 03:45:44;;;;;;;10.20;5.22;;;4.70;99.90;;;;;;5030573;28;20088;-68
2021/12/25 03:48:15;;;;;;;9.90;4.95;;;4.60;99.90;;;;;;5031054;28;20460;-69
2021/12/25 03:57:34;;;;;;;8.05;4.03;;;4.70;99.90;;;;;;5030842;28;20048;-68
2021/12/25 03:59:06;;;;;;;8.73;4.25;;;4.50;99.90;;;;;;5031083;28;20064;-68
2021/12/25 04:01:45;;;;;;;7.80;4.03;;;4.40;99.90;;;;;;5030913;28;20053;-68
2021/12/25 04:04:19;;;;;;;9.52;4.47;;;4.30;99.90;;;;;;5031213;28;20207;-68
2021/12/25 04:06:53;;;;;;;7.82;3.85;;;4.20;99.90;;;;;;5030911;28;20053;-68
2021/12/25 04:09:24;;;;;;;8.02;4.15;;;4.30;99.90;;;;;;5030955;28;20057;-68
2021/12/25 04:11:52;;;;;;;7.60;3.55;;;4.30;99.90;;;;;;5031249;28;20060;-67
2021/12/25 04:14:19;;;;;;;7.15;3.72;;;4.30;99.90;;;;;;5030871;28;20091;-67
2021/12/25 04:16:48;;;;;;;7.38;3.50;;;4.20;99.90;;;;;;5030472;28;20053;-67
2021/12/25 04:19:15;;;;;;;7.53;3.50;;;4.20;99.90;;;;;;5033060;28;20420;-67
2021/12/25 04:21:50;;;;;;;6.43;3.53;;;4.10;99.90;;;;;;5034672;28;20100;-67
2021/12/25 04:24:17;;;;;;;7.28;3.30;;;4.00;99.90;;;;;;5034866;28;20115;-67
2021/12/25 04:26:54;;;;;;;8.40;3.40;;;4.10;99.90;;;;;;5034369;28;20498;-67
2021/12/25 04:29:36;;;;;;;6.68;3.45;;;4.00;99.90;;;;;;5034902;28;20099;-67
2021/12/25 04:32:34;;;;;;;7.97;3.53;;;4.00;99.90;;;;;;5034975;28;20061;-67
2021/12/25 05:02:44;;;;;;;7.07;3.70;;;3.60;99.90;;;;;;5033951;28;20080;-67
2021/12/25 05:05:16;;;;;;;6.90;3.40;;;3.50;99.90;;;;;;5034033;28;20092;-67
2021/12/25 05:07:43;;;;;;;7.57;3.70;;;3.50;99.90;;;;;;5034038;28;20563;-66
2021/12/25 05:10:10;;;;;;;8.50;3.70;;;3.40;99.90;;;;;;5034115;28;20049;-66
2021/12/25 05:12:37;;;;;;;7.87;3.80;;;3.50;99.90;;;;;;5034016;28;20092;-67
2021/12/25 05:15:06;;;;;;;11.63;3.90;;;3.50;99.90;;;;;;5033572;28;20143;-68
2021/12/25 05:17:33;;;;;;;9.10;4.17;;;3.40;99.90;;;;;;5033782;28;20136;-68
2021/12/25 05:20:00;;;;;;;8.53;4.13;;;3.40;99.90;;;;;;5033886;28;20091;-68
2021/12/25 05:22:29;;;;;;;9.57;4.57;;;3.30;99.90;;;;;;5034461;28;20465;-67
2021/12/25 05:24:56;;;;;;;10.03;4.70;;;3.40;99.90;;;;;;5033377;28;20260;-68
2021/12/25 05:27:23;;;;;;;9.67;4.73;;;3.30;99.90;;;;;;5033579;28;20049;-68
2021/12/25 05:29:50;;;;;;;10.03;4.47;;;3.40;99.90;;;;;;5033178;28;20387;-67
2021/12/25 05:32:18;;;;;;;9.47;4.77;;;3.40;99.90;;;;;;5033813;28;20483;-67
2021/12/25 05:34:46;;;;;;;8.93;4.43;;;3.40;99.90;;;;;;5032993;28;20049;-68
2021/12/25 05:37:13;;;;;;;9.10;4.50;;;3.40;99.90;;;;;;5033554;28;20115;-65
2021/12/25 05:39:49;;;;;;;10.77;4.40;;;3.40;99.90;;;;;;5033734;28;20115;-68
2021/12/25 05:42:17;;;;;;;10.17;4.97;;;3.30;99.90;;;;;;5033480;28;20112;-66
2021/12/25 05:44:44;;;;;;;9.30;4.40;;;3.30;99.90;;;;;;5033680;28;20140;-68
2021/12/25 05:47:11;;;;;;;10.83;4.93;;;3.30;99.90;;;;;;5033094;28;20058;-67
2021/12/25 05:49:38;;;;;;;10.80;5.27;;;3.30;99.90;;;;;;5033163;28;20104;-68
2021/12/25 05:52:06;;;;;;;10.00;3.90;;;3.20;99.90;;;;;;5033316;28;20136;-67
2021/12/25 05:54:33;;;;;;;10.33;4.47;;;3.30;99.90;;;;;;5033338;28;20140;-68
2021/12/25 05:57:01;;;;;;;8.70;4.33;;;3.30;99.90;;;;;;5033857;28;20073;-67
2021/12/25 05:59:28;;;;;;;10.93;4.40;;;3.20;99.90;;;;;;5035565;28;20495;-67
2021/12/25 06:01:55;;;;;;;8.30;3.87;;;3.10;99.90;;;;;;5033516;28;20134;-68
2021/12/25 06:04:22;;;;;;;9.97;4.90;;;3.10;99.90;;;;;;5033221;28;20409;-68
2021/12/25 06:06:49;;;;;;;8.57;4.60;;;3.20;99.90;;;;;;5033007;28;20108;-68
2021/12/25 06:09:16;;;;;;;9.33;4.40;;;3.20;99.90;;;;;;5032888;28;20053;-68
2021/12/25 06:11:44;;;;;;;9.07;4.77;;;3.20;99.90;;;;;;5032855;28;20077;-66
2021/12/25 06:14:18;;;;;;;9.33;4.13;;;3.20;99.90;;;;;;5033077;28;20067;-66
2021/12/25 06:16:46;;;;;;;7.93;3.77;;;3.10;99.90;;;;;;5032959;28;20072;-66
2021/12/25 06:19:13;;;;;;;8.77;4.00;;;3.20;99.90;;;;;;5032981;28;20092;-66
2021/12/25 06:21:40;;;;;;;8.57;4.30;;;3.20;99.90;;;;;;5032462;28;20077;-69
2021/12/25 06:24:07;;;;;;;7.97;3.50;;;3.20;99.90;;;;;;5032492;28;20076;-66
2021/12/25 06:26:35;;;;;;;8.00;3.97;;;3.10;99.90;;;;;;5032880;28;20116;-66
2021/12/25 06:29:02;;;;;;;7.30;3.43;;;3.10;99.90;;;;;;5032787;28;20084;-66
2021/12/25 06:31:30;;;;;;;10.00;4.07;;;3.10;99.90;;;;;;5032636;28;20413;-66
2021/12/25 06:33:58;;;;;;;8.77;4.10;;;2.90;99.90;;;;;;5032463;28;20590;-67
2021/12/25 06:36:25;;;;;;;9.10;3.93;;;2.90;99.90;;;;;;5032113;28;20498;-66
2021/12/25 06:38:52;;;;;;;7.07;3.30;;;2.80;99.90;;;;;;5032827;28;20145;-66
2021/12/25 06:41:19;;;;;;;12.47;3.57;;;2.80;99.90;;;;;;5032494;28;20092;-66
2021/12/25 06:43:46;;;;;;;10.60;3.60;;;2.80;99.90;;;;;;5032415;28;20096;-68
2021/12/25 06:46:13;;;;;;;8.73;4.30;;;2.80;99.90;;;;;;5031933;28;20445;-66
2021/12/25 06:48:42;;;;;;;9.40;4.10;;;2.80;99.90;;;;;;5032303;28;20058;-66
2021/12/25 06:51:09;;;;;;;9.17;4.10;;;2.70;99.90;;;;;;5032308;28;20056;-66
2021/12/25 06:53:37;;;;;;;12.03;4.73;;;2.70;99.90;;;;;;5032139;28;20046;-66
2021/12/25 06:56:04;;;;;;;11.47;4.67;;;2.70;99.90;;;;;;5032034;28;20049;-66
2021/12/25 06:58:31;;;;;;;11.73;4.80;;;2.70;99.90;;;;;;5032187;28;20107;-66
2021/12/25 07:00:58;;;;;;;10.17;4.70;;;2.50;99.90;;;;;;5032080;28;20099;-66
2021/12/25 07:03:25;;;;;;;10.83;5.07;;;2.60;99.90;;;;;;5031764;28;20049;-65
2021/12/25 07:05:53;;;;;;;9.17;5.00;;;2.60;99.90;;;;;;5031561;28;20081;-66
2021/12/25 07:08:20;;;;;;;12.27;5.60;;;2.70;99.90;;;;;;5031767;28;20107;-66
2021/12/25 07:10:47;;;;;;;13.97;6.37;;;2.60;99.90;;;;;;5032134;28;20092;-67
2021/12/25 07:13:18;;;;;;;12.03;6.13;;;2.60;99.90;;;;;;5031904;28;20080;-66
2021/12/25 07:15:45;;;;;;;12.40;5.90;;;2.50;99.90;;;;;;5031501;28;20474;-66
2021/12/25 07:18:12;;;;;;;12.27;6.10;;;2.40;99.90;;;;;;5031463;28;20120;-65
2021/12/25 07:20:39;;;;;;;11.90;6.03;;;2.30;99.90;;;;;;5031782;28;20085;-66
2021/12/25 07:23:08;;;;;;;12.80;6.03;;;2.40;99.90;;;;;;5031907;28;20085;-68
2021/12/25 07:25:35;;;;;;;13.83;6.50;;;2.30;99.90;;;;;;5031862;28;20506;-66
2021/12/25 07:28:02;;;;;;;15.20;6.57;;;2.30;99.90;;;;;;5032373;28;20100;-66
2021/12/25 07:30:29;;;;;;;13.73;7.17;;;2.20;99.90;;;;;;5031990;28;20081;-66
2021/12/25 07:32:56;;;;;;;14.30;7.00;;;2.00;99.90;;;;;;5031720;28;20100;-68
2021/12/25 07:35:23;;;;;;;15.37;7.43;;;2.00;99.90;;;;;;5031645;28;20081;-66
2021/12/25 07:37:50;;;;;;;16.60;7.17;;;1.90;99.90;;;;;;5031381;28;20107;-66
2021/12/25 07:40:18;;;;;;;16.03;8.03;;;1.50;99.90;;;;;;5031636;28;20142;-68
2021/12/25 07:42:45;;;;;;;14.43;6.73;;;1.70;99.90;;;;;;5030937;28;20099;-66
2021/12/25 07:45:13;;;;;;;15.37;7.13;;;1.70;99.90;;;;;;5031147;28;20494;-68
2021/12/25 07:47:46;;;;;;;20.70;7.50;;;1.60;99.90;;;;;;5032486;28;20060;-68
2021/12/25 07:50:14;;;;;;;14.33;7.23;;;1.60;99.90;;;;;;5032591;28;20088;-69
2021/12/25 07:52:41;;;;;;;17.33;8.50;;;1.60;99.90;;;;;;5031459;28;20053;-69
2021/12/25 07:55:09;;;;;;;17.73;8.57;;;1.60;99.90;;;;;;5031142;28;20524;-68
2021/12/25 07:57:37;;;;;;;18.20;7.87;;;1.50;99.90;;;;;;5031144;28;20053;-68
2021/12/25 08:00:07;;;;;;;17.60;8.77;;;1.50;99.90;;;;;;5031103;28;20510;-68
2021/12/25 08:02:34;;;;;;;14.70;7.63;;;1.60;99.90;;;;;;5030939;28;20045;-68
2021/12/25 08:05:01;;;;;;;18.33;8.60;;;1.50;99.90;;;;;;5031137;28;20345;-68
2021/12/25 08:07:28;;;;;;;16.30;8.03;;;1.50;99.90;;;;;;5031332;28;20080;-69
2021/12/25 08:10:02;;;;;;;18.33;8.90;;;1.50;99.90;;;;;;5031181;28;20135;-68
2021/12/25 08:12:29;;;;;;;17.73;8.07;;;1.40;99.90;;;;;;5031390;28;20069;-67
2021/12/25 08:14:57;;;;;;;18.63;8.83;;;1.50;99.90;;;;;;5030635;28;20045;-67
2021/12/25 08:17:24;;;;;;;19.83;8.23;;;1.40;99.90;;;;;;5031537;28;20046;-67
2021/12/25 08:19:51;;;;;;;17.40;8.27;;;1.40;99.90;;;;;;5031228;28;20084;-68
2021/12/25 08:22:18;;;;;;;17.73;7.63;;;1.30;99.90;;;;;;5030845;28;20076;-67
2021/12/25 08:24:46;;;;;;;17.37;8.13;;;1.40;99.90;;;;;;5030739;28;20579;-68
2021/12/25 08:27:13;;;;;;;14.97;7.47;;;1.40;99.90;;;;;;5031391;28;20065;-67
2021/12/25 08:29:40;;;;;;;17.80;8.00;;;1.40;99.90;;;;;;5031251;28;20482;-67
2021/12/25 08:32:10;;;;;;;14.70;7.37;;;1.40;99.90;;;;;;5031174;28;20633;-67
2021/12/25 08:34:38;;;;;;;14.57;7.03;;;1.40;99.90;;;;;;5031975;28;20053;-67
2021/12/25 08:37:06;;;;;;;16.07;6.70;;;1.50;99.90;;;;;;5031365;28;20057;-66
2021/12/25 08:39:33;;;;;;;14.03;6.43;;;1.50;99.90;;;;;;5030460;28;20081;-67
2021/12/25 08:42:04;;;;;;;11.53;5.30;;;1.50;99.90;;;;;;5032670;28;20085;-69
2021/12/25 08:44:39;;;;;;;9.70;5.00;;;1.40;99.90;;;;;;5032879;28;20057;-69
2021/12/25 08:47:12;;;;;;;11.13;5.10;;;1.40;99.90;;;;;;5033329;28;20049;-68
2021/12/25 08:49:41;;;;;;;12.97;5.80;;;1.40;99.90;;;;;;5031951;28;20107;-69
2021/12/25 08:52:11;;;;;;;10.97;5.10;;;1.50;99.90;;;;;;5031842;28;20056;-67
2021/12/25 08:54:38;;;;;;;13.90;5.90;;;1.50;99.90;;;;;;5031465;28;20446;-67
2021/12/25 08:57:07;;;;;;;14.47;6.70;;;1.40;99.90;;;;;;5030461;28;20077;-69
2021/12/25 08:59:35;;;;;;;12.57;6.37;;;1.40;99.90;;;;;;5030742;28;20112;-69
2021/12/25 09:02:04;;;;;;;12.30;6.10;;;1.50;99.90;;;;;;5030630;28;20068;-68
2021/12/25 09:04:33;;;;;;;12.40;5.63;;;1.50;99.90;;;;;;5031625;28;20520;-68
2021/12/25 09:07:00;;;;;;;10.00;5.40;;;1.60;99.90;;;;;;5033911;28;20081;-68
2021/12/25 09:09:27;;;;;;;15.03;7.33;;;1.60;99.90;;;;;;5034696;28;20064;-67
2021/12/25 09:11:54;;;;;;;16.50;7.90;;;1.60;99.90;;;;;;5034278;28;20045;-67
2021/12/25 09:14:21;;;;;;;17.07;8.50;;;1.60;99.90;;;;;;5034098;28;20119;-69
2021/12/25 09:16:48;;;;;;;17.00;8.20;;;1.70;99.90;;;;;;5033980;28;20053;-69
2021/12/25 09:19:15;;;;;;;14.67;8.10;;;1.60;99.90;;;;;;5035295;28;20061;-67
2021/12/25 09:21:44;;;;;;;22.93;9.17;;;1.70;99.90;;;;;;5035458;28;20464;-69
2021/12/25 09:24:11;;;;;;;18.30;9.20;;;1.60;99.90;;;;;;5034983;28;20426;-68
2021/12/25 09:26:38;;;;;;;15.67;8.40;;;1.60;99.90;;;;;;5034803;28;20563;-68
2021/12/25 09:29:07;;;;;;;15.20;7.87;;;1.60;99.90;;;;;;5037298;28;20088;-69
2021/12/25 09:31:34;;;;;;;16.77;8.60;;;1.60;99.90;;;;;;5035879;28;20103;-67
2021/12/25 09:34:01;;;;;;;16.67;7.87;;;1.50;99.90;;;;;;5033983;28;20465;-67
2021/12/25 09:36:29;;;;;;;16.70;8.03;;;1.50;99.90;;;;;;5033577;28;20482;-67
2021/12/25 09:38:57;;;;;;;15.23;7.77;;;1.50;99.90;;;;;;5035043;28;20528;-67
2021/12/25 09:41:25;;;;;;;16.40;8.20;;;1.40;99.90;;;;;;5034153;28;20532;-66
2021/12/25 09:43:52;;;;;;;15.70;8.23;;;1.40;99.90;;;;;;5033729;28;20057;-67
2021/12/25 09:46:22;;;;;;;18.50;8.30;;;1.40;99.90;;;;;;5035997;28;20502;-67
2021/12/25 09:48:51;;;;;;;15.57;7.53;;;1.30;99.90;;;;;;5042938;28;20485;-67
2021/12/25 09:51:18;;;;;;;17.50;8.53;;;1.30;99.90;;;;;;5036937;28;20057;-67
2021/12/25 09:53:57;;;;;;;17.07;8.40;;;1.30;99.90;;;;;;5033871;28;20076;-67
2021/12/25 09:56:26;;;;;;;18.43;8.53;;;1.30;99.90;;;;;;5036741;28;20084;-67
2021/12/25 09:58:54;;;;;;;17.53;8.87;;;1.40;99.90;;;;;;5034591;28;20053;-67
2021/12/25 10:01:37;;;;;;;17.33;8.17;;;1.30;99.90;;;;;;5034819;28;20049;-67
2021/12/25 10:04:04;;;;;;;16.07;7.73;;;1.40;99.90;;;;;;5035403;28;20421;-67
2021/12/25 10:06:33;;;;;;;17.57;8.37;;;1.50;99.90;;;;;;5032804;28;20543;-67
2021/12/25 10:09:13;;;;;;;18.97;8.27;;;1.50;99.90;;;;;;5033352;28;20093;-67
2021/12/25 10:11:56;;;;;;;17.90;8.53;;;1.50;99.90;;;;;;5032936;28;20051;-68
2021/12/25 10:14:25;;;;;;;17.50;8.03;;;1.50;99.90;;;;;;5032875;28;20088;-68
2021/12/25 10:16:52;;;;;;;16.20;7.47;;;1.90;99.90;;;;;;5033063;28;20064;-67
2021/12/25 10:19:22;;;;;;;18.33;7.90;;;2.10;99.90;;;;;;5032907;28;20089;-68
2021/12/25 10:21:49;;;;;;;15.23;7.90;;;2.20;99.90;;;;;;5032909;28;20053;-67
2021/12/25 10:24:26;;;;;;;18.33;8.10;;;2.30;99.90;;;;;;5032689;28;20099;-67
2021/12/25 10:26:54;;;;;;;14.57;7.67;;;2.30;99.90;;;;;;5032333;28;20053;-67
2021/12/25 10:29:24;;;;;;;14.97;7.80;;;2.30;99.90;;;;;;5032810;28;20134;-67
2021/12/25 10:31:53;;;;;;;17.83;8.07;;;2.40;99.90;;;;;;5032404;28;20045;-68
2021/12/25 10:34:23;;;;;;;18.67;9.23;;;2.40;99.90;;;;;;5032689;28;20050;-68
2021/12/25 10:36:51;;;;;;;15.13;7.40;;;2.40;99.90;;;;;;5032898;28;20085;-67
2021/12/25 10:39:21;;;;;;;13.87;7.07;;;2.40;99.90;;;;;;5033208;28;20103;-68
2021/12/25 10:41:54;;;;;;;15.70;7.23;;;2.40;99.90;;;;;;5032564;28;20057;-68
2021/12/25 10:44:24;;;;;;;13.50;6.93;;;2.30;99.90;;;;;;5032638;28;20053;-67
2021/12/25 10:46:54;;;;;;;14.80;7.10;;;2.40;99.90;;;;;;5033071;28;20513;-68
2021/12/25 10:49:22;;;;;;;15.50;7.97;;;2.30;99.90;;;;;;5033990;28;20430;-69
2021/12/25 10:51:49;;;;;;;16.63;8.20;;;2.40;99.90;;;;;;5033514;28;20103;-68
2021/12/25 10:54:18;;;;;;;16.67;8.43;;;2.10;99.90;;;;;;5033048;28;20139;-70
2021/12/25 10:56:49;;;;;;;15.47;8.00;;;2.30;99.90;;;;;;5032921;28;20057;-69
2021/12/25 10:59:22;;;;;;;16.87;8.90;;;2.30;99.90;;;;;;5033389;28;20085;-70
2021/12/25 11:01:51;;;;;;;18.80;8.50;;;2.30;99.90;;;;;;5033148;28;20049;-67
2021/12/25 11:04:30;;;;;;;16.47;8.33;;;2.30;99.90;;;;;;5032729;28;20099;-68
2021/12/25 11:06:58;;;;;;;17.63;8.83;;;2.30;99.90;;;;;;5032340;28;20104;-68
2021/12/25 11:09:26;;;;;;;17.33;8.50;;;2.20;99.90;;;;;;5032902;28;20049;-69
2021/12/25 11:12:20;;;;;;;15.77;9.03;;;2.30;99.90;;;;;;5032924;28;20061;-68
2021/12/25 11:14:48;;;;;;;18.17;8.73;;;2.40;99.90;;;;;;5034864;28;20375;-68
2021/12/25 11:17:25;;;;;;;17.00;8.43;;;2.40;99.90;;;;;;5033099;28;20053;-68
2021/12/25 11:20:00;;;;;;;20.25;8.60;;;2.20;99.90;;;;;;5032563;28;20506;-69
2021/12/25 11:22:28;;;;;;;17.80;9.00;;;2.10;99.90;;;;;;5033264;28;20053;-69
2021/12/25 11:24:58;;;;;;;17.33;7.93;;;2.10;99.90;;;;;;5049839;28;20068;-71
2021/12/25 11:27:27;;;;;;;17.47;8.27;;;2.10;99.90;;;;;;5052490;28;20041;-69
2021/12/25 11:29:54;;;;;;;16.30;8.07;;;2.10;99.90;;;;;;5036336;28;20049;-68
2021/12/25 11:32:21;;;;;;;17.03;8.73;;;2.20;99.90;;;;;;5034367;28;20060;-70
2021/12/25 11:34:50;;;;;;;16.03;7.90;;;2.20;99.90;;;;;;5032908;28;20063;-68
2021/12/25 11:37:19;;;;;;;16.27;7.90;;;2.10;99.90;;;;;;5032823;28;20200;-67
2021/12/25 11:39:51;;;;;;;16.73;7.50;;;2.20;99.90;;;;;;5034910;28;20046;-69
2021/12/25 11:42:20;;;;;;;13.90;7.50;;;2.30;99.90;;;;;;5032669;28;20092;-69
2021/12/25 11:44:52;;;;;;;14.27;7.27;;;2.40;99.90;;;;;;5034019;28;20390;-69
2021/12/25 11:47:37;;;;;;;14.20;7.20;;;2.40;99.90;;;;;;5032933;28;20061;-69
2021/12/25 11:50:09;;;;;;;15.33;7.93;;;2.40;99.90;;;;;;5032843;28;20136;-69
2021/12/25 11:52:44;;;;;;;13.87;7.10;;;2.40;99.90;;;;;;5031978;28;20045;-68
2021/12/25 11:55:36;;;;;;;14.30;7.37;;;2.40;99.90;;;;;;5031528;28;20053;-69
2021/12/25 11:58:17;;;;;;;13.20;6.97;;;2.30;99.90;;;;;;5032406;28;20057;-69
2021/12/25 12:00:47;;;;;;;13.80;7.57;;;2.20;99.90;;;;;;5032924;28;20132;-68
2021/12/25 12:03:36;;;;;;;16.77;7.30;;;2.30;99.90;;;;;;5032164;28;20464;-69
2021/12/25 12:06:03;;;;;;;13.43;7.23;;;2.40;99.90;;;;;;5032729;28;20057;-68
2021/12/25 12:08:47;;;;;;;15.50;7.97;;;2.40;99.90;;;;;;5031722;28;20132;-68
2021/12/25 12:11:21;;;;;;;14.30;7.40;;;2.40;99.90;;;;;;5031794;28;20059;-69
2021/12/25 12:13:48;;;;;;;13.97;6.57;;;2.40;99.90;;;;;;5032103;28;20132;-67
2021/12/25 12:16:39;;;;;;;12.97;6.80;;;2.40;99.90;;;;;;5032176;28;20077;-69
2021/12/25 12:19:41;;;;;;;13.83;6.57;;;2.40;99.90;;;;;;5021193;28;20457;-68
2021/12/25 12:25:28;;;;;;;17.03;8.37;;;2.20;99.90;;;;;;5028960;28;20037;-68
2021/12/25 12:27:57;;;;;;;12.47;6.27;;;2.20;99.90;;;;;;5031880;28;20089;-68
2021/12/25 12:30:44;;;;;;;18.10;8.33;;;2.10;99.90;;;;;;5032106;28;20100;-68
2021/12/25 12:33:38;;;;;;;15.80;8.05;;;2.20;99.90;;;;;;5032416;28;20111;-69
2021/12/25 12:36:26;;;;;;;15.20;8.17;;;2.20;99.90;;;;;;5030872;28;20506;-70
2021/12/25 12:38:59;;;;;;;15.30;7.93;;;2.20;99.90;;;;;;5031479;28;20050;-68
2021/12/25 12:41:33;;;;;;;17.90;8.07;;;2.30;99.90;;;;;;5035684;28;20076;-68
2021/12/25 12:44:04;;;;;;;15.83;7.97;;;2.30;99.90;;;;;;5036006;28;20059;-68
2021/12/25 12:47:04;;;;;;;14.97;7.20;;;2.20;99.90;;;;;;5036620;28;20046;-68
2021/12/25 12:49:53;;;;;;;16.70;9.80;;;2.20;99.90;;;;;;5036088;28;20236;-68
2021/12/25 12:52:23;;;;;;;16.87;7.60;;;2.20;99.90;;;;;;5034921;28;20049;-68
2021/12/25 12:54:53;;;;;;;13.67;6.83;;;2.20;99.90;;;;;;5035079;28;20128;-69
2021/12/25 12:57:24;;;;;;;13.00;6.70;;;1.90;99.90;;;;;;5035173;28;20075;-68
2021/12/25 12:59:54;;;;;;;12.30;6.57;;;2.00;99.90;;;;;;5035138;28;20053;-68
2021/12/25 13:02:22;;;;;;;11.27;6.20;;;2.10;99.90;;;;;;5034994;28;20053;-68
2021/12/25 13:04:53;;;;;;;12.87;7.23;;;2.20;99.90;;;;;;5035662;28;20050;-68
2021/12/25 13:07:22;;;;;;;11.57;6.00;;;2.20;99.90;;;;;;5035096;28;20049;-68
2021/12/25 13:10:03;;;;;;;12.67;6.13;;;2.20;99.90;;;;;;5035144;28;20049;-69
2021/12/25 13:12:39;;;;;;;16.43;6.83;;;2.20;99.90;;;;;;5034634;28;20053;-68
2021/12/25 13:15:11;;;;;;;10.93;5.87;;;2.30;99.90;;;;;;5034213;28;20049;-68
2021/12/25 13:17:38;;;;;;;12.50;6.50;;;2.30;99.90;;;;;;5034370;28;20053;-67
2021/12/25 13:20:10;;;;;;;12.00;6.17;;;2.30;99.90;;;;;;5017272;28;20076;-70
2021/12/25 13:22:38;;;;;;;13.93;6.23;;;2.30;99.90;;;;;;5034686;28;20067;-70
2021/12/25 13:25:07;;;;;;;12.90;6.37;;;2.20;99.90;;;;;;5034189;28;20104;-68
2021/12/25 13:27:34;;;;;;;14.63;6.97;;;2.30;99.90;;;;;;5034447;28;20234;-68
2021/12/25 13:30:16;;;;;;;12.33;6.87;;;2.30;99.90;;;;;;5034570;28;20057;-68
2021/12/25 13:32:44;;;;;;;12.43;6.00;;;2.30;99.90;;;;;;5034495;28;20480;-68
2021/12/25 13:35:16;;;;;;;15.57;7.23;;;2.20;99.90;;;;;;5033922;28;20049;-67
2021/12/25 13:37:43;;;;;;;11.80;6.13;;;2.30;99.90;;;;;;5034096;28;20049;-68
2021/12/25 13:40:14;;;;;;;10.17;4.67;;;2.20;99.90;;;;;;5034123;28;20498;-68
2021/12/25 13:42:42;;;;;;;7.90;4.20;;;2.20;99.90;;;;;;5033942;28;20497;-67
2021/12/25 13:45:09;;;;;;;7.87;3.97;;;2.10;99.90;;;;;;5033608;28;20050;-68
2021/12/25 13:47:38;;;;;;;10.63;4.63;;;2.10;99.90;;;;;;5033831;28;20057;-68
2021/12/25 13:50:08;;;;;;;7.27;3.90;;;2.20;99.90;;;;;;5034019;28;20579;-68
2021/12/25 13:52:39;;;;;;;8.90;3.90;;;2.20;99.90;;;;;;5033120;28;20057;-68